Aviation Digital Data Service (ADDS)

Output produced by TAFs form (0643 UTC 02 September 2014)
found at http://aviationweather.gov/adds/tafs/
 
KAEG 020539Z 0206/0306 30006KT P6SM SKC 
     FM021600 12006KT P6SM SKC 
     FM021900 19008KT P6SM FEW090 
     FM030200 20006KT P6SM SKC